sensor_id;sensor_type;location;lat;lon;timestamp;P1;durP1;ratioP1;P2;durP2;ratioP2
61336;SDS011;47212;41.326;2.104;2022-10-26T00:02:34;15.70;;;5.05;;
61336;SDS011;47212;41.326;2.104;2022-10-26T00:07:36;16.98;;;5.65;;
61336;SDS011;47212;41.326;2.104;2022-10-26T00:12:38;18.83;;;6.68;;
61336;SDS011;47212;41.326;2.104;2022-10-26T00:17:40;14.43;;;5.35;;
61336;SDS011;47212;41.326;2.104;2022-10-26T00:22:45;12.52;;;4.85;;
61336;SDS011;47212;41.326;2.104;2022-10-26T00:27:50;13.20;;;4.70;;
61336;SDS011;47212;41.326;2.104;2022-10-26T00:32:57;13.27;;;5.22;;
61336;SDS011;47212;41.326;2.104;2022-10-26T00:38:01;13.30;;;5.32;;
61336;SDS011;47212;41.326;2.104;2022-10-26T00:48:34;13.52;;;5.78;;
61336;SDS011;47212;41.326;2.104;2022-10-26T00:53:39;11.23;;;4.95;;
61336;SDS011;47212;41.326;2.104;2022-10-26T00:58:47;10.40;;;5.20;;
61336;SDS011;47212;41.326;2.104;2022-10-26T01:05:26;12.25;;;5.13;;
61336;SDS011;47212;41.326;2.104;2022-10-26T01:10:34;13.40;;;5.50;;
61336;SDS011;47212;41.326;2.104;2022-10-26T01:16:01;19.30;;;6.30;;
61336;SDS011;47212;41.326;2.104;2022-10-26T01:26:49;12.88;;;4.88;;
61336;SDS011;47212;41.326;2.104;2022-10-26T01:32:07;19.98;;;6.70;;
61336;SDS011;47212;41.326;2.104;2022-10-26T01:37:21;16.20;;;6.68;;
61336;SDS011;47212;41.326;2.104;2022-10-26T01:42:31;13.60;;;6.30;;
61336;SDS011;47212;41.326;2.104;2022-10-26T01:47:48;12.77;;;5.40;;
61336;SDS011;47212;41.326;2.104;2022-10-26T01:52:59;12.55;;;5.53;;
61336;SDS011;47212;41.326;2.104;2022-10-26T01:58:26;10.40;;;5.32;;
61336;SDS011;47212;41.326;2.104;2022-10-26T02:04:15;9.70;;;4.55;;
61336;SDS011;47212;41.326;2.104;2022-10-26T02:09:56;13.40;;;5.50;;
61336;SDS011;47212;41.326;2.104;2022-10-26T02:20:31;12.60;;;5.20;;
61336;SDS011;47212;41.326;2.104;2022-10-26T02:25:47;11.77;;;5.53;;
61336;SDS011;47212;41.326;2.104;2022-10-26T02:30:58;13.77;;;5.00;;
61336;SDS011;47212;41.326;2.104;2022-10-26T02:36:02;14.70;;;6.32;;
61336;SDS011;47212;41.326;2.104;2022-10-26T02:41:09;9.55;;;5.53;;
61336;SDS011;47212;41.326;2.104;2022-10-26T02:46:27;7.25;;;4.72;;
61336;SDS011;47212;41.326;2.104;2022-10-26T02:56:56;15.10;;;6.65;;
61336;SDS011;47212;41.326;2.104;2022-10-26T03:02:03;19.73;;;7.75;;
61336;SDS011;47212;41.326;2.104;2022-10-26T03:07:08;17.75;;;8.05;;
61336;SDS011;47212;41.326;2.104;2022-10-26T03:12:21;19.15;;;8.00;;
61336;SDS011;47212;41.326;2.104;2022-10-26T03:17:36;14.00;;;6.93;;
61336;SDS011;47212;41.326;2.104;2022-10-26T03:22:52;17.08;;;7.30;;
61336;SDS011;47212;41.326;2.104;2022-10-26T03:28:05;19.25;;;8.35;;
61336;SDS011;47212;41.326;2.104;2022-10-26T03:33:12;16.00;;;6.90;;
61336;SDS011;47212;41.326;2.104;2022-10-26T03:38:31;17.05;;;5.68;;
61336;SDS011;47212;41.326;2.104;2022-10-26T03:43:40;18.98;;;6.68;;
61336;SDS011;47212;41.326;2.104;2022-10-26T03:48:47;21.45;;;7.38;;
61336;SDS011;47212;41.326;2.104;2022-10-26T03:54:05;11.45;;;5.90;;
61336;SDS011;47212;41.326;2.104;2022-10-26T03:59:12;13.32;;;5.65;;
61336;SDS011;47212;41.326;2.104;2022-10-26T04:04:19;18.23;;;6.38;;
61336;SDS011;47212;41.326;2.104;2022-10-26T04:09:30;10.13;;;5.82;;
61336;SDS011;47212;41.326;2.104;2022-10-26T04:14:54;16.33;;;6.78;;
61336;SDS011;47212;41.326;2.104;2022-10-26T04:20:09;19.15;;;6.40;;
61336;SDS011;47212;41.326;2.104;2022-10-26T04:25:17;15.98;;;6.22;;
61336;SDS011;47212;41.326;2.104;2022-10-26T04:30:22;17.02;;;6.63;;
61336;SDS011;47212;41.326;2.104;2022-10-26T04:35:40;17.77;;;6.72;;
61336;SDS011;47212;41.326;2.104;2022-10-26T04:40:53;15.40;;;6.35;;
61336;SDS011;47212;41.326;2.104;2022-10-26T04:46:10;19.45;;;7.53;;
61336;SDS011;47212;41.326;2.104;2022-10-26T04:51:19;17.00;;;7.55;;
61336;SDS011;47212;41.326;2.104;2022-10-26T04:56:29;16.60;;;7.28;;
61336;SDS011;47212;41.326;2.104;2022-10-26T05:01:43;23.48;;;8.55;;
61336;SDS011;47212;41.326;2.104;2022-10-26T05:06:54;19.00;;;7.10;;
61336;SDS011;47212;41.326;2.104;2022-10-26T05:12:21;18.33;;;7.45;;
61336;SDS011;47212;41.326;2.104;2022-10-26T05:18:00;18.58;;;8.65;;
61336;SDS011;47212;41.326;2.104;2022-10-26T05:23:26;16.85;;;7.78;;
61336;SDS011;47212;41.326;2.104;2022-10-26T05:28:40;12.65;;;6.60;;
61336;SDS011;47212;41.326;2.104;2022-10-26T05:33:54;13.10;;;7.22;;
61336;SDS011;47212;41.326;2.104;2022-10-26T05:38:58;15.43;;;6.88;;
61336;SDS011;47212;41.326;2.104;2022-10-26T05:44:07;17.92;;;7.05;;
61336;SDS011;47212;41.326;2.104;2022-10-26T05:49:16;13.68;;;6.20;;
61336;SDS011;47212;41.326;2.104;2022-10-26T05:54:23;18.52;;;7.68;;
61336;SDS011;47212;41.326;2.104;2022-10-26T05:59:27;12.70;;;5.72;;
61336;SDS011;47212;41.326;2.104;2022-10-26T06:05:01;17.73;;;6.88;;
61336;SDS011;47212;41.326;2.104;2022-10-26T06:10:30;18.92;;;8.25;;
61336;SDS011;47212;41.326;2.104;2022-10-26T06:15:37;20.65;;;9.30;;
61336;SDS011;47212;41.326;2.104;2022-10-26T06:32:21;31.30;;;7.85;;
61336;SDS011;47212;41.326;2.104;2022-10-26T06:37:35;58.80;;;9.88;;
61336;SDS011;47212;41.326;2.104;2022-10-26T06:42:52;16.25;;;6.38;;
61336;SDS011;47212;41.326;2.104;2022-10-26T06:58:49;11.40;;;6.88;;
61336;SDS011;47212;41.326;2.104;2022-10-26T07:04:16;14.48;;;6.47;;
61336;SDS011;47212;41.326;2.104;2022-10-26T07:09:36;18.35;;;5.78;;
61336;SDS011;47212;41.326;2.104;2022-10-26T07:14:56;21.42;;;7.30;;
61336;SDS011;47212;41.326;2.104;2022-10-26T07:20:05;16.15;;;6.88;;
61336;SDS011;47212;41.326;2.104;2022-10-26T07:25:18;21.27;;;7.03;;
61336;SDS011;47212;41.326;2.104;2022-10-26T07:30:25;17.45;;;7.60;;
61336;SDS011;47212;41.326;2.104;2022-10-26T07:35:33;17.65;;;7.60;;
61336;SDS011;47212;41.326;2.104;2022-10-26T07:40:38;12.65;;;6.93;;
61336;SDS011;47212;41.326;2.104;2022-10-26T07:45:43;19.25;;;7.38;;
61336;SDS011;47212;41.326;2.104;2022-10-26T07:50:52;14.73;;;6.60;;
61336;SDS011;47212;41.326;2.104;2022-10-26T07:56:09;18.85;;;6.93;;
61336;SDS011;47212;41.326;2.104;2022-10-26T08:01:21;16.15;;;6.95;;
61336;SDS011;47212;41.326;2.104;2022-10-26T08:06:27;12.90;;;6.32;;
61336;SDS011;47212;41.326;2.104;2022-10-26T08:11:31;19.35;;;6.70;;
61336;SDS011;47212;41.326;2.104;2022-10-26T08:16:42;17.42;;;5.90;;
61336;SDS011;47212;41.326;2.104;2022-10-26T08:21:49;19.38;;;7.10;;
61336;SDS011;47212;41.326;2.104;2022-10-26T08:27:02;15.85;;;5.88;;
61336;SDS011;47212;41.326;2.104;2022-10-26T08:32:07;15.20;;;5.70;;
61336;SDS011;47212;41.326;2.104;2022-10-26T08:37:37;13.20;;;5.00;;
61336;SDS011;47212;41.326;2.104;2022-10-26T08:42:43;18.95;;;6.55;;
61336;SDS011;47212;41.326;2.104;2022-10-26T08:48:00;16.42;;;6.63;;
61336;SDS011;47212;41.326;2.104;2022-10-26T08:58:53;22.45;;;6.00;;
61336;SDS011;47212;41.326;2.104;2022-10-26T09:04:08;14.45;;;5.15;;
61336;SDS011;47212;41.326;2.104;2022-10-26T09:21:27;20.85;;;6.65;;
61336;SDS011;47212;41.326;2.104;2022-10-26T09:27:09;20.55;;;7.30;;
61336;SDS011;47212;41.326;2.104;2022-10-26T09:32:33;22.30;;;6.53;;
61336;SDS011;47212;41.326;2.104;2022-10-26T09:37:57;20.70;;;6.55;;
61336;SDS011;47212;41.326;2.104;2022-10-26T09:49:10;13.95;;;4.97;;
61336;SDS011;47212;41.326;2.104;2022-10-26T09:54:19;19.73;;;6.47;;
61336;SDS011;47212;41.326;2.104;2022-10-26T09:59:26;19.25;;;6.25;;
61336;SDS011;47212;41.326;2.104;2022-10-26T10:04:37;17.20;;;5.35;;
61336;SDS011;47212;41.326;2.104;2022-10-26T10:10:08;19.90;;;5.80;;
61336;SDS011;47212;41.326;2.104;2022-10-26T10:15:33;17.35;;;6.30;;
61336;SDS011;47212;41.326;2.104;2022-10-26T10:20:50;27.70;;;6.43;;
61336;SDS011;47212;41.326;2.104;2022-10-26T10:26:04;18.52;;;5.63;;
61336;SDS011;47212;41.326;2.104;2022-10-26T10:31:26;15.82;;;5.75;;
61336;SDS011;47212;41.326;2.104;2022-10-26T10:36:32;14.60;;;6.20;;
61336;SDS011;47212;41.326;2.104;2022-10-26T10:41:58;17.08;;;5.55;;
61336;SDS011;47212;41.326;2.104;2022-10-26T10:47:19;21.27;;;5.78;;
61336;SDS011;47212;41.326;2.104;2022-10-26T10:52:47;19.00;;;4.82;;
61336;SDS011;47212;41.326;2.104;2022-10-26T11:09:18;9.88;;;3.92;;
61336;SDS011;47212;41.326;2.104;2022-10-26T11:14:32;15.48;;;4.82;;
61336;SDS011;47212;41.326;2.104;2022-10-26T11:19:59;17.85;;;4.68;;
61336;SDS011;47212;41.326;2.104;2022-10-26T11:25:23;13.05;;;5.05;;
61336;SDS011;47212;41.326;2.104;2022-10-26T11:30:48;14.02;;;4.82;;
61336;SDS011;47212;41.326;2.104;2022-10-26T11:36:08;15.70;;;5.18;;
61336;SDS011;47212;41.326;2.104;2022-10-26T11:41:39;11.90;;;4.20;;
61336;SDS011;47212;41.326;2.104;2022-10-26T11:57:37;12.25;;;4.32;;
61336;SDS011;47212;41.326;2.104;2022-10-26T12:02:46;10.35;;;3.90;;
61336;SDS011;47212;41.326;2.104;2022-10-26T12:09:15;17.17;;;5.07;;
61336;SDS011;47212;41.326;2.104;2022-10-26T12:20:47;19.20;;;5.28;;
61336;SDS011;47212;41.326;2.104;2022-10-26T12:25:36;14.10;;;4.85;;
61336;SDS011;47212;41.326;2.104;2022-10-26T12:30:41;14.52;;;4.03;;
61336;SDS011;47212;41.326;2.104;2022-10-26T12:35:48;12.32;;;4.43;;
61336;SDS011;47212;41.326;2.104;2022-10-26T12:41:18;14.13;;;4.45;;
61336;SDS011;47212;41.326;2.104;2022-10-26T12:51:46;17.80;;;5.22;;
61336;SDS011;47212;41.326;2.104;2022-10-26T13:08:21;10.88;;;5.43;;
61336;SDS011;47212;41.326;2.104;2022-10-26T13:13:33;17.50;;;6.30;;
61336;SDS011;47212;41.326;2.104;2022-10-26T13:18:41;16.25;;;4.93;;
61336;SDS011;47212;41.326;2.104;2022-10-26T13:23:59;12.15;;;4.40;;
61336;SDS011;47212;41.326;2.104;2022-10-26T13:29:12;9.55;;;4.15;;
61336;SDS011;47212;41.326;2.104;2022-10-26T13:34:27;11.70;;;4.50;;
61336;SDS011;47212;41.326;2.104;2022-10-26T13:39:42;15.55;;;5.07;;
61336;SDS011;47212;41.326;2.104;2022-10-26T13:45:07;12.35;;;4.57;;
61336;SDS011;47212;41.326;2.104;2022-10-26T13:50:29;14.32;;;4.97;;
61336;SDS011;47212;41.326;2.104;2022-10-26T14:01:41;13.32;;;5.50;;
61336;SDS011;47212;41.326;2.104;2022-10-26T14:06:49;14.93;;;5.28;;
61336;SDS011;47212;41.326;2.104;2022-10-26T14:12:00;13.10;;;4.80;;
61336;SDS011;47212;41.326;2.104;2022-10-26T14:17:17;13.07;;;4.68;;
61336;SDS011;47212;41.326;2.104;2022-10-26T14:22:24;14.18;;;5.45;;
61336;SDS011;47212;41.326;2.104;2022-10-26T14:27:39;14.68;;;5.10;;
61336;SDS011;47212;41.326;2.104;2022-10-26T14:32:55;12.75;;;5.85;;
61336;SDS011;47212;41.326;2.104;2022-10-26T14:38:05;12.25;;;4.47;;
61336;SDS011;47212;41.326;2.104;2022-10-26T14:43:27;13.05;;;4.93;;
61336;SDS011;47212;41.326;2.104;2022-10-26T14:48:32;12.40;;;4.10;;
61336;SDS011;47212;41.326;2.104;2022-10-26T14:53:51;9.88;;;4.38;;
61336;SDS011;47212;41.326;2.104;2022-10-26T14:59:16;13.48;;;4.63;;
61336;SDS011;47212;41.326;2.104;2022-10-26T15:04:34;12.52;;;4.80;;
61336;SDS011;47212;41.326;2.104;2022-10-26T15:09:51;12.63;;;4.82;;
61336;SDS011;47212;41.326;2.104;2022-10-26T15:14:55;10.00;;;4.30;;
61336;SDS011;47212;41.326;2.104;2022-10-26T15:20:15;11.55;;;3.97;;
61336;SDS011;47212;41.326;2.104;2022-10-26T15:25:27;11.52;;;3.85;;
61336;SDS011;47212;41.326;2.104;2022-10-26T15:30:40;13.32;;;4.25;;
61336;SDS011;47212;41.326;2.104;2022-10-26T15:41:31;13.95;;;4.47;;
61336;SDS011;47212;41.326;2.104;2022-10-26T15:46:43;10.65;;;4.25;;
61336;SDS011;47212;41.326;2.104;2022-10-26T15:52:20;10.38;;;3.97;;
61336;SDS011;47212;41.326;2.104;2022-10-26T15:57:22;8.30;;;4.13;;
61336;SDS011;47212;41.326;2.104;2022-10-26T16:02:36;13.95;;;4.40;;
61336;SDS011;47212;41.326;2.104;2022-10-26T16:07:49;10.32;;;4.22;;
61336;SDS011;47212;41.326;2.104;2022-10-26T16:12:56;18.38;;;4.53;;
61336;SDS011;47212;41.326;2.104;2022-10-26T16:18:01;11.68;;;4.80;;
61336;SDS011;47212;41.326;2.104;2022-10-26T16:23:29;9.10;;;4.47;;
61336;SDS011;47212;41.326;2.104;2022-10-26T16:28:56;13.35;;;5.28;;
61336;SDS011;47212;41.326;2.104;2022-10-26T16:34:03;15.20;;;6.35;;
61336;SDS011;47212;41.326;2.104;2022-10-26T16:39:17;11.73;;;5.80;;
61336;SDS011;47212;41.326;2.104;2022-10-26T16:44:22;21.30;;;7.38;;
61336;SDS011;47212;41.326;2.104;2022-10-26T16:49:39;7.30;;;4.68;;
61336;SDS011;47212;41.326;2.104;2022-10-26T16:55:08;17.58;;;8.02;;
61336;SDS011;47212;41.326;2.104;2022-10-26T17:00:21;17.65;;;7.82;;
61336;SDS011;47212;41.326;2.104;2022-10-26T17:05:52;10.65;;;5.90;;
61336;SDS011;47212;41.326;2.104;2022-10-26T17:11:12;12.67;;;5.97;;
61336;SDS011;47212;41.326;2.104;2022-10-26T17:16:26;16.40;;;6.68;;
61336;SDS011;47212;41.326;2.104;2022-10-26T17:22:03;10.63;;;4.70;;
61336;SDS011;47212;41.326;2.104;2022-10-26T17:27:34;6.90;;;4.35;;
61336;SDS011;47212;41.326;2.104;2022-10-26T17:32:52;15.65;;;6.53;;
61336;SDS011;47212;41.326;2.104;2022-10-26T17:38:02;11.75;;;5.25;;
61336;SDS011;47212;41.326;2.104;2022-10-26T17:43:12;24.23;;;8.40;;
61336;SDS011;47212;41.326;2.104;2022-10-26T17:48:43;10.25;;;4.97;;
61336;SDS011;47212;41.326;2.104;2022-10-26T17:53:54;11.85;;;6.15;;
61336;SDS011;47212;41.326;2.104;2022-10-26T17:59:08;9.93;;;5.28;;
61336;SDS011;47212;41.326;2.104;2022-10-26T18:04:20;9.95;;;5.25;;
61336;SDS011;47212;41.326;2.104;2022-10-26T18:09:24;13.88;;;6.38;;
61336;SDS011;47212;41.326;2.104;2022-10-26T18:14:31;10.85;;;5.63;;
61336;SDS011;47212;41.326;2.104;2022-10-26T18:19:47;11.20;;;5.22;;
61336;SDS011;47212;41.326;2.104;2022-10-26T18:24:56;11.90;;;5.47;;
61336;SDS011;47212;41.326;2.104;2022-10-26T18:30:20;7.45;;;4.45;;
61336;SDS011;47212;41.326;2.104;2022-10-26T18:35:24;13.95;;;6.30;;
61336;SDS011;47212;41.326;2.104;2022-10-26T18:40:43;10.30;;;4.72;;
61336;SDS011;47212;41.326;2.104;2022-10-26T18:46:12;7.57;;;4.70;;
61336;SDS011;47212;41.326;2.104;2022-10-26T18:51:36;11.65;;;5.50;;
61336;SDS011;47212;41.326;2.104;2022-10-26T18:56:42;7.22;;;4.43;;
61336;SDS011;47212;41.326;2.104;2022-10-26T19:01:52;11.00;;;4.88;;
61336;SDS011;47212;41.326;2.104;2022-10-26T19:07:00;7.82;;;4.70;;
61336;SDS011;47212;41.326;2.104;2022-10-26T19:12:12;13.80;;;4.82;;
61336;SDS011;47212;41.326;2.104;2022-10-26T19:17:20;11.18;;;6.53;;
61336;SDS011;47212;41.326;2.104;2022-10-26T19:22:25;11.55;;;5.95;;
61336;SDS011;47212;41.326;2.104;2022-10-26T19:27:29;6.65;;;4.93;;
61336;SDS011;47212;41.326;2.104;2022-10-26T19:32:43;7.30;;;5.15;;
61336;SDS011;47212;41.326;2.104;2022-10-26T19:37:59;12.35;;;7.35;;
61336;SDS011;47212;41.326;2.104;2022-10-26T19:43:07;11.60;;;6.80;;
61336;SDS011;47212;41.326;2.104;2022-10-26T19:48:16;7.15;;;5.30;;
61336;SDS011;47212;41.326;2.104;2022-10-26T19:53:32;14.82;;;8.15;;
61336;SDS011;47212;41.326;2.104;2022-10-26T19:58:39;14.13;;;7.63;;
61336;SDS011;47212;41.326;2.104;2022-10-26T20:03:56;13.20;;;7.50;;
61336;SDS011;47212;41.326;2.104;2022-10-26T20:09:05;10.85;;;6.80;;
61336;SDS011;47212;41.326;2.104;2022-10-26T20:14:20;8.73;;;5.75;;
61336;SDS011;47212;41.326;2.104;2022-10-26T20:19:28;15.23;;;8.02;;
61336;SDS011;47212;41.326;2.104;2022-10-26T20:24:35;8.52;;;6.50;;
61336;SDS011;47212;41.326;2.104;2022-10-26T20:29:43;11.00;;;6.78;;
61336;SDS011;47212;41.326;2.104;2022-10-26T20:34:48;7.57;;;5.47;;
61336;SDS011;47212;41.326;2.104;2022-10-26T20:39:53;9.02;;;6.30;;
61336;SDS011;47212;41.326;2.104;2022-10-26T20:45:06;10.63;;;6.80;;
61336;SDS011;47212;41.326;2.104;2022-10-26T20:50:19;11.88;;;6.55;;
61336;SDS011;47212;41.326;2.104;2022-10-26T20:55:47;9.60;;;6.13;;
61336;SDS011;47212;41.326;2.104;2022-10-26T21:01:03;11.20;;;7.40;;
61336;SDS011;47212;41.326;2.104;2022-10-26T21:06:16;10.98;;;8.30;;
61336;SDS011;47212;41.326;2.104;2022-10-26T21:11:21;13.40;;;7.20;;
61336;SDS011;47212;41.326;2.104;2022-10-26T21:16:32;9.07;;;6.60;;
61336;SDS011;47212;41.326;2.104;2022-10-26T21:21:43;10.38;;;6.05;;
61336;SDS011;47212;41.326;2.104;2022-10-26T21:26:48;13.85;;;8.70;;
61336;SDS011;47212;41.326;2.104;2022-10-26T21:31:56;10.70;;;7.60;;
61336;SDS011;47212;41.326;2.104;2022-10-26T21:37:11;18.80;;;9.15;;
61336;SDS011;47212;41.326;2.104;2022-10-26T21:42:15;15.60;;;8.48;;
61336;SDS011;47212;41.326;2.104;2022-10-26T21:47:23;14.27;;;7.50;;
61336;SDS011;47212;41.326;2.104;2022-10-26T21:52:31;11.52;;;7.97;;
61336;SDS011;47212;41.326;2.104;2022-10-26T21:57:37;16.13;;;7.95;;
61336;SDS011;47212;41.326;2.104;2022-10-26T22:02:51;11.02;;;7.00;;
61336;SDS011;47212;41.326;2.104;2022-10-26T22:07:55;11.95;;;6.97;;
61336;SDS011;47212;41.326;2.104;2022-10-26T22:13:07;11.55;;;7.05;;
61336;SDS011;47212;41.326;2.104;2022-10-26T22:18:17;15.03;;;8.90;;
61336;SDS011;47212;41.326;2.104;2022-10-26T22:23:32;13.60;;;7.72;;
61336;SDS011;47212;41.326;2.104;2022-10-26T22:28:47;11.07;;;6.38;;
61336;SDS011;47212;41.326;2.104;2022-10-26T22:34:01;17.40;;;8.23;;
61336;SDS011;47212;41.326;2.104;2022-10-26T22:39:12;12.52;;;8.48;;
61336;SDS011;47212;41.326;2.104;2022-10-26T22:44:47;11.50;;;7.38;;
61336;SDS011;47212;41.326;2.104;2022-10-26T22:49:52;11.95;;;6.18;;
61336;SDS011;47212;41.326;2.104;2022-10-26T22:54:58;17.73;;;8.85;;
61336;SDS011;47212;41.326;2.104;2022-10-26T23:00:04;17.95;;;8.27;;
61336;SDS011;47212;41.326;2.104;2022-10-26T23:05:23;11.82;;;6.78;;
61336;SDS011;47212;41.326;2.104;2022-10-26T23:10:28;12.10;;;5.97;;
61336;SDS011;47212;41.326;2.104;2022-10-26T23:15:40;10.18;;;6.15;;
61336;SDS011;47212;41.326;2.104;2022-10-26T23:20:50;13.77;;;6.95;;
61336;SDS011;47212;41.326;2.104;2022-10-26T23:26:01;13.05;;;5.68;;
61336;SDS011;47212;41.326;2.104;2022-10-26T23:36:35;15.48;;;7.93;;
61336;SDS011;47212;41.326;2.104;2022-10-26T23:41:46;21.90;;;8.50;;
61336;SDS011;47212;41.326;2.104;2022-10-26T23:46:52;16.17;;;8.80;;
61336;SDS011;47212;41.326;2.104;2022-10-26T23:51:55;19.13;;;9.65;;
61336;SDS011;47212;41.326;2.104;2022-10-26T23:57:20;26.88;;;10.60;;
